createdAt,value
2018-05-09T00:01:01.576Z,2.70
2018-05-09T00:04:04.921Z,2.47
2018-05-09T00:07:08.183Z,2.53
2018-05-09T00:10:11.450Z,2.57
2018-05-09T00:13:15.585Z,2.90
2018-05-09T00:16:18.846Z,2.93
2018-05-09T00:19:22.093Z,3.00
2018-05-09T00:22:25.378Z,2.90
2018-05-09T00:25:28.638Z,3.47
2018-05-09T00:28:32.658Z,3.10
2018-05-09T00:31:36.683Z,2.93
2018-05-09T00:34:40.798Z,2.90
2018-05-09T00:37:44.810Z,3.20
2018-05-09T00:40:48.259Z,2.73
2018-05-09T00:43:51.548Z,2.80
2018-05-09T00:46:54.797Z,3.17
2018-05-09T00:49:58.055Z,2.93
2018-05-09T00:53:01.350Z,2.97
2018-05-09T00:56:06.571Z,2.90
2018-05-09T00:59:09.825Z,2.90
2018-05-09T01:02:13.084Z,3.27
2018-05-09T01:05:16.362Z,2.60
2018-05-09T01:08:19.620Z,3.08
2018-05-09T01:11:24.380Z,2.43
2018-05-09T01:14:27.671Z,4.20
2018-05-09T01:17:31.702Z,3.50
2018-05-09T01:20:34.953Z,3.00
2018-05-09T01:23:38.205Z,3.30
2018-05-09T01:26:42.227Z,3.17
2018-05-09T01:29:45.526Z,3.40
2018-05-09T01:32:48.769Z,3.43
2018-05-09T01:35:52.034Z,3.10
2018-05-09T01:38:55.283Z,3.40
2018-05-09T01:41:58.554Z,3.10
2018-05-09T01:45:01.807Z,3.20
2018-05-09T01:48:05.134Z,3.13
2018-05-09T01:51:08.402Z,3.80
2018-05-09T01:54:11.687Z,3.73
2018-05-09T01:57:15.712Z,3.50
2018-05-09T02:00:18.964Z,3.43
2018-05-09T02:03:22.225Z,3.53
2018-05-09T02:06:25.483Z,3.78
2018-05-09T02:09:29.513Z,3.73
2018-05-09T02:12:32.753Z,3.97
2018-05-09T02:15:36.172Z,4.20
2018-05-09T02:18:39.403Z,3.00
2018-05-09T02:21:42.657Z,4.30
2018-05-09T02:24:45.912Z,3.27
2018-05-09T02:27:49.203Z,4.50
2018-05-09T02:30:52.482Z,3.83
2018-05-09T02:33:56.714Z,3.73
2018-05-09T02:37:00.740Z,3.97
2018-05-09T02:40:03.996Z,3.60
2018-05-09T02:43:07.307Z,3.73
2018-05-09T02:46:11.323Z,3.53
2018-05-09T02:49:15.344Z,3.27
2018-05-09T02:52:19.378Z,3.50
2018-05-09T02:55:22.630Z,3.67
2018-05-09T02:58:25.880Z,4.20
2018-05-09T03:01:29.150Z,3.40
2018-05-09T03:04:32.681Z,3.93
2018-05-09T03:07:35.929Z,3.70
2018-05-09T03:10:39.949Z,4.50
2018-05-09T03:13:43.981Z,3.70
2018-05-09T03:16:47.236Z,4.00
2018-05-09T03:19:50.486Z,4.00
2018-05-09T03:22:53.746Z,4.77
2018-05-09T03:25:56.993Z,4.33
2018-05-09T03:29:00.249Z,3.97
2018-05-09T03:32:04.306Z,4.80
2018-05-09T03:35:07.554Z,5.23
2018-05-09T03:38:10.800Z,4.73
2018-05-09T03:41:14.169Z,3.77
2018-05-09T03:44:18.173Z,4.67
2018-05-09T03:47:22.213Z,3.67
2018-05-09T03:50:26.233Z,3.60
2018-05-09T03:53:30.255Z,3.50
2018-05-09T03:56:33.649Z,3.05
2018-05-09T03:59:37.666Z,3.03
2018-05-09T04:02:59.439Z,3.37
2018-05-09T04:06:20.435Z,3.30
2018-05-09T04:09:45.030Z,3.27
2018-05-09T04:12:48.281Z,4.00
2018-05-09T04:15:51.540Z,3.87
2018-05-09T04:18:55.437Z,4.13
2018-05-09T04:21:59.490Z,3.37
2018-05-09T04:25:31.349Z,4.17
2018-05-09T04:28:40.008Z,3.77
2018-05-09T04:31:45.100Z,3.77
2018-05-09T04:34:49.211Z,4.07
2018-05-09T04:37:53.243Z,4.30
2018-05-09T04:40:57.346Z,4.50
2018-05-09T04:44:01.394Z,3.50
2018-05-09T04:47:04.698Z,3.53
2018-05-09T04:50:08.218Z,4.03
2018-05-09T04:53:11.471Z,3.53
2018-05-09T04:56:18.247Z,4.30
2018-05-09T04:59:21.506Z,3.70
2018-05-09T05:02:24.771Z,4.57
2018-05-09T05:05:28.918Z,4.80
2018-05-09T05:08:32.186Z,4.83
2018-05-09T05:11:35.500Z,4.77
2018-05-09T05:14:39.607Z,5.67
2018-05-09T05:17:42.906Z,5.60
2018-05-09T05:20:46.934Z,5.90
2018-05-09T05:23:50.954Z,5.70
2018-05-09T05:26:55.022Z,5.23
2018-05-09T05:29:58.292Z,5.20
2018-05-09T05:33:02.517Z,5.33
2018-05-09T05:36:05.783Z,4.97
2018-05-09T05:39:09.146Z,5.27
2018-05-09T05:42:12.524Z,5.40
2018-05-09T05:45:15.930Z,5.57
2018-05-09T05:48:19.113Z,5.33
2018-05-09T05:51:22.369Z,5.37
2018-05-09T05:54:25.616Z,4.57
2018-05-09T05:57:28.899Z,5.13
2018-05-09T06:00:32.161Z,6.13
2018-05-09T06:03:35.432Z,5.20
2018-05-09T06:06:38.718Z,5.22
2018-05-09T06:09:41.985Z,4.83
2018-05-09T06:12:45.243Z,4.93
2018-05-09T06:15:48.496Z,4.53
2018-05-09T06:18:52.518Z,5.12
2018-05-09T06:21:56.561Z,6.13
2018-05-09T06:24:59.821Z,5.70
2018-05-09T06:28:03.519Z,5.67
2018-05-09T06:31:06.781Z,5.27
2018-05-09T06:34:10.050Z,5.53
2018-05-09T06:37:13.363Z,4.83
2018-05-09T06:40:16.610Z,5.00
2018-05-09T06:43:19.935Z,5.40
2018-05-09T06:46:23.200Z,5.27
2018-05-09T06:49:26.452Z,3.97
2018-05-09T06:52:29.738Z,4.57
2018-05-09T06:55:33.030Z,5.00
2018-05-09T06:58:36.341Z,4.43
2018-05-09T07:01:39.618Z,4.12
2018-05-09T07:04:42.900Z,4.33
2018-05-09T07:07:46.931Z,4.00
2018-05-09T07:10:50.989Z,3.97
2018-05-09T07:13:54.261Z,4.50
2018-05-09T07:16:57.822Z,4.07
2018-05-09T07:20:01.070Z,3.80
2018-05-09T07:23:04.412Z,4.03
2018-05-09T07:26:07.652Z,4.17
2018-05-09T07:29:11.941Z,3.87
2018-05-09T07:32:15.213Z,4.10
2018-05-09T07:35:18.483Z,4.57
2018-05-09T07:38:22.604Z,3.72
2018-05-09T07:41:26.621Z,4.20
2018-05-09T07:44:29.972Z,3.97
2018-05-09T07:47:33.323Z,4.20
2018-05-09T07:50:36.600Z,4.10
2018-05-09T07:53:40.622Z,4.62
2018-05-09T07:56:44.783Z,4.50
2018-05-09T07:59:48.100Z,4.00
2018-05-09T08:02:51.383Z,4.23
2018-05-09T08:05:54.725Z,3.93
2018-05-09T08:08:57.954Z,4.10
2018-05-09T08:12:01.218Z,3.90
2018-05-09T08:15:04.610Z,4.07
2018-05-09T08:18:07.908Z,4.00
2018-05-09T08:21:11.200Z,4.00
2018-05-09T08:24:14.516Z,3.97
2018-05-09T08:27:17.816Z,3.85
2018-05-09T08:30:21.095Z,3.70
2018-05-09T08:33:24.436Z,3.13
2018-05-09T08:36:28.453Z,3.33
2018-05-09T08:39:31.714Z,3.53
2018-05-09T08:42:34.973Z,2.90
2018-05-09T08:45:38.223Z,3.53
2018-05-09T08:48:41.489Z,3.87
2018-05-09T08:51:44.749Z,3.77
2018-05-09T08:54:48.779Z,3.03
2018-05-09T08:57:52.803Z,3.17
2018-05-09T09:00:56.810Z,3.30
2018-05-09T09:04:00.076Z,3.57
2018-05-09T09:07:03.415Z,3.10
2018-05-09T09:10:07.435Z,3.10
2018-05-09T09:13:11.553Z,3.27
2018-05-09T09:16:15.575Z,3.23
2018-05-09T09:19:19.594Z,3.10
2018-05-09T09:22:22.850Z,2.27
2018-05-09T09:25:26.184Z,2.97
2018-05-09T09:28:30.232Z,2.70
2018-05-09T09:31:33.497Z,2.20
2018-05-09T09:34:37.515Z,2.60
2018-05-09T09:37:41.633Z,2.40
2018-05-09T09:40:45.763Z,2.50
2018-05-09T09:43:49.026Z,2.47
2018-05-09T09:46:52.418Z,2.80
2018-05-09T09:49:55.835Z,2.50
2018-05-09T09:52:59.102Z,2.33
2018-05-09T09:56:02.382Z,2.13
2018-05-09T09:59:05.641Z,2.40
2018-05-09T10:02:09.981Z,1.73
2018-05-09T10:05:13.290Z,1.93
2018-05-09T10:08:16.679Z,1.90
2018-05-09T10:11:19.942Z,2.10
2018-05-09T10:14:24.006Z,1.90
2018-05-09T10:17:27.261Z,1.80
2018-05-09T10:20:30.526Z,1.80
2018-05-09T10:23:34.722Z,2.03
2018-05-09T10:26:38.146Z,2.23
2018-05-09T10:29:41.427Z,1.63
2018-05-09T10:32:44.713Z,1.60
2018-05-09T10:35:47.966Z,1.80
2018-05-09T10:38:51.232Z,1.60
2018-05-09T10:41:54.557Z,2.17
2018-05-09T10:44:57.840Z,1.87
2018-05-09T10:48:01.167Z,2.10
2018-05-09T10:51:04.412Z,1.70
2018-05-09T10:54:07.795Z,1.93
2018-05-09T10:57:11.839Z,1.50
2018-05-09T11:00:15.114Z,1.93
2018-05-09T11:03:18.383Z,1.80
2018-05-09T11:06:22.444Z,1.97
2018-05-09T11:09:25.701Z,1.80
2018-05-09T11:12:29.032Z,1.90
2018-05-09T11:15:33.061Z,1.97
2018-05-09T11:18:35.618Z,1.93
2018-05-09T11:21:39.806Z,2.10
2018-05-09T11:24:43.137Z,1.57
2018-05-09T11:27:48.248Z,1.70
2018-05-09T11:30:51.550Z,1.70
2018-05-09T11:33:54.851Z,2.10
2018-05-09T11:36:58.125Z,1.93
2018-05-09T11:40:01.634Z,1.77
2018-05-09T11:43:04.928Z,1.37
2018-05-09T11:46:08.205Z,1.77
2018-05-09T11:49:11.604Z,1.73
2018-05-09T11:52:14.853Z,1.80
2018-05-09T11:55:18.216Z,1.70
2018-05-09T11:58:21.515Z,1.73
2018-05-09T12:01:24.825Z,1.90
2018-05-09T12:04:28.108Z,2.17
2018-05-09T12:07:31.390Z,2.63
2018-05-09T12:10:35.541Z,2.83
2018-05-09T12:13:38.700Z,2.27
2018-05-09T12:16:45.314Z,2.63
2018-05-09T12:19:49.244Z,2.40
2018-05-09T12:22:52.514Z,2.23
2018-05-09T12:25:55.823Z,2.03
2018-05-09T12:28:59.117Z,1.93
2018-05-09T12:32:02.381Z,1.40
2018-05-09T12:35:06.511Z,1.80
2018-05-09T12:38:09.785Z,2.30
2018-05-09T12:41:13.838Z,1.90
2018-05-09T12:44:17.240Z,2.10
2018-05-09T12:47:20.506Z,1.93
2018-05-09T12:50:24.666Z,2.03
2018-05-09T12:53:28.254Z,2.10
2018-05-09T12:56:31.532Z,1.80
2018-05-09T12:59:35.579Z,1.83
2018-05-09T13:02:38.859Z,2.20
2018-05-09T13:05:42.142Z,2.00
2018-05-09T13:08:46.194Z,2.20
2018-05-09T13:11:49.590Z,2.10
2018-05-09T13:14:52.901Z,2.50
2018-05-09T13:17:56.171Z,2.40
2018-05-09T13:21:00.224Z,2.17
2018-05-09T13:24:04.723Z,2.60
2018-05-09T13:27:08.240Z,2.30
2018-05-09T13:30:11.550Z,2.00
2018-05-09T13:33:14.814Z,1.93
2018-05-09T13:36:18.876Z,1.97
2018-05-09T13:39:22.130Z,2.40
2018-05-09T13:42:26.460Z,2.10
2018-05-09T13:45:30.482Z,2.63
2018-05-09T13:48:35.894Z,3.20
2018-05-09T13:51:40.118Z,3.30
2018-05-09T13:54:46.326Z,2.80
2018-05-09T13:57:49.658Z,1.87
2018-05-09T14:00:52.915Z,1.80
2018-05-09T14:03:56.198Z,1.87
2018-05-09T14:07:00.222Z,2.07
2018-05-09T14:10:04.319Z,2.70
2018-05-09T14:13:07.581Z,3.30
2018-05-09T14:16:11.165Z,3.25
2018-05-09T14:19:14.552Z,2.90
2018-05-09T14:22:18.568Z,3.30
2018-05-09T14:25:21.830Z,2.47
2018-05-09T14:28:25.079Z,2.37
2018-05-09T14:31:28.394Z,2.40
2018-05-09T14:34:31.654Z,3.07
2018-05-09T14:37:34.934Z,2.13
2018-05-09T14:40:39.094Z,2.20
2018-05-09T14:43:42.234Z,1.93
2018-05-09T14:46:45.547Z,2.17
2018-05-09T14:49:48.834Z,2.40
2018-05-09T14:52:53.039Z,2.00
2018-05-09T14:55:56.299Z,2.17
2018-05-09T14:59:00.884Z,1.93
2018-05-09T15:02:04.965Z,2.00
2018-05-09T15:05:12.552Z,1.30
2018-05-09T15:08:16.094Z,1.53
2018-05-09T15:11:19.440Z,1.23
2018-05-09T15:14:23.457Z,1.43
2018-05-09T15:17:26.874Z,1.47
2018-05-09T15:20:31.461Z,1.33
2018-05-09T15:23:44.064Z,1.60
2018-05-09T15:26:51.206Z,1.60
2018-05-09T15:29:54.562Z,1.67
2018-05-09T15:32:57.833Z,1.90
2018-05-09T15:36:01.107Z,2.17
2018-05-09T15:39:05.184Z,2.30
2018-05-09T15:42:08.450Z,2.13
2018-05-09T15:45:11.845Z,2.17
2018-05-09T15:48:15.130Z,1.90
2018-05-09T15:51:18.478Z,1.77
2018-05-09T15:54:22.047Z,1.77
2018-05-09T15:57:26.071Z,1.87
2018-05-09T16:00:30.325Z,2.00
2018-05-09T16:03:33.793Z,2.13
2018-05-09T16:06:37.836Z,2.10
2018-05-09T16:09:44.450Z,2.40
2018-05-09T16:12:47.903Z,2.33
2018-05-09T16:15:51.186Z,1.97
2018-05-09T16:18:55.283Z,2.40
2018-05-09T16:22:01.497Z,1.67
2018-05-09T16:25:04.822Z,1.87
2018-05-09T16:28:08.699Z,1.87
2018-05-09T16:31:12.040Z,2.10
2018-05-09T16:34:15.313Z,2.00
2018-05-09T16:37:18.580Z,1.60
2018-05-09T16:40:22.675Z,1.80
2018-05-09T16:43:26.186Z,1.60
2018-05-09T16:46:30.256Z,1.60
2018-05-09T16:49:33.506Z,2.17
2018-05-09T16:52:36.816Z,2.03
2018-05-09T16:55:40.070Z,1.60
2018-05-09T16:58:43.412Z,2.30
2018-05-09T17:01:46.718Z,2.50
2018-05-09T17:04:49.994Z,2.77
2018-05-09T17:07:54.021Z,2.43
2018-05-09T17:10:58.045Z,2.40
2018-05-09T17:14:01.302Z,2.70
2018-05-09T17:17:04.566Z,2.90
2018-05-09T17:20:07.823Z,2.37
2018-05-09T17:23:11.089Z,2.30
2018-05-09T17:26:14.364Z,2.30
2018-05-09T17:29:17.680Z,2.27
2018-05-09T17:32:20.944Z,2.27
2018-05-09T17:35:24.983Z,2.10
2018-05-09T17:38:28.267Z,2.43
2018-05-09T17:41:32.281Z,2.43
2018-05-09T17:44:36.299Z,2.53
2018-05-09T17:47:40.325Z,2.10
2018-05-09T17:50:43.606Z,1.57
2018-05-09T17:53:46.914Z,2.07
2018-05-09T17:56:50.198Z,2.10
2018-05-09T17:59:54.209Z,2.17
2018-05-09T18:02:58.236Z,2.50
2018-05-09T18:06:02.260Z,1.87
2018-05-09T18:09:06.252Z,2.00
2018-05-09T18:12:09.551Z,2.00
2018-05-09T18:15:13.598Z,2.13
2018-05-09T18:18:16.905Z,2.43
2018-05-09T18:21:20.173Z,2.03
2018-05-09T18:24:23.429Z,1.97
2018-05-09T18:27:27.445Z,1.70
2018-05-09T18:30:30.745Z,1.77
2018-05-09T18:33:34.839Z,2.00
2018-05-09T18:36:38.078Z,2.03
2018-05-09T18:39:41.330Z,2.10
2018-05-09T18:42:44.598Z,1.90
2018-05-09T18:45:47.853Z,2.03
2018-05-09T18:48:51.866Z,2.90
2018-05-09T18:51:55.889Z,3.20
2018-05-09T18:54:59.930Z,3.63
2018-05-09T18:58:03.183Z,2.30
2018-05-09T19:01:06.445Z,2.10
2018-05-09T19:04:09.723Z,2.23
2018-05-09T19:07:12.991Z,2.50
2018-05-09T19:10:16.246Z,1.97
2018-05-09T19:13:19.558Z,2.10
2018-05-09T19:16:22.969Z,2.13
2018-05-09T19:19:26.244Z,2.27
2018-05-09T19:22:30.286Z,2.10
2018-05-09T19:25:33.545Z,2.10
2018-05-09T19:28:37.133Z,1.87
2018-05-09T19:31:40.363Z,2.10
2018-05-09T19:34:44.491Z,2.50
2018-05-09T19:37:48.516Z,2.50
2018-05-09T19:40:51.993Z,2.50
2018-05-09T19:43:55.314Z,2.20
2018-05-09T19:46:58.609Z,2.70
2018-05-09T19:50:02.884Z,2.50
2018-05-09T19:53:06.157Z,2.20
2018-05-09T19:56:09.465Z,2.33
2018-05-09T19:59:13.747Z,3.20
2018-05-09T20:02:17.783Z,3.37
2018-05-09T20:05:21.056Z,3.43
2018-05-09T20:08:25.075Z,3.30
2018-05-09T20:11:29.166Z,2.97
2018-05-09T20:14:32.430Z,3.63
2018-05-09T20:17:35.689Z,3.90
2018-05-09T20:20:39.734Z,3.40
2018-05-09T20:23:43.065Z,3.77
2018-05-09T20:26:46.292Z,3.77
2018-05-09T20:29:50.307Z,2.80
2018-05-09T20:32:54.339Z,3.20
2018-05-09T20:35:57.645Z,3.07
2018-05-09T20:39:01.683Z,2.57
2018-05-09T20:42:05.798Z,2.72
2018-05-09T20:45:09.814Z,3.17
2018-05-09T20:48:13.206Z,2.70
2018-05-09T20:51:17.305Z,2.80
2018-05-09T20:54:20.568Z,2.47
2018-05-09T20:57:23.826Z,2.17
2018-05-09T21:00:27.076Z,2.40
2018-05-09T21:03:30.457Z,2.50
2018-05-09T21:06:34.507Z,2.30
2018-05-09T21:09:38.588Z,2.80
2018-05-09T21:12:41.839Z,2.97
2018-05-09T21:15:45.085Z,3.10
2018-05-09T21:18:48.344Z,2.67
2018-05-09T21:21:51.600Z,2.43
2018-05-09T21:24:56.396Z,2.63
2018-05-09T21:27:59.727Z,2.67
2018-05-09T21:31:03.193Z,2.20
2018-05-09T21:34:06.562Z,2.63
2018-05-09T21:40:20.572Z,2.80
2018-05-09T21:43:24.622Z,2.30
2018-05-09T21:46:27.902Z,2.73
2018-05-09T21:49:31.219Z,2.73
2018-05-09T21:52:34.711Z,2.70
2018-05-09T21:55:38.797Z,2.60
2018-05-09T21:58:42.836Z,2.57
2018-05-09T22:01:56.246Z,2.33
2018-05-09T22:04:59.677Z,2.50
2018-05-09T22:08:03.302Z,2.67
2018-05-09T22:11:06.563Z,2.10
2018-05-09T22:14:09.866Z,2.43
2018-05-09T22:17:13.113Z,2.55
2018-05-09T22:20:16.371Z,3.00
2018-05-09T22:23:19.727Z,2.80
2018-05-09T22:26:23.070Z,3.22
2018-05-09T22:29:26.396Z,2.50
2018-05-09T22:32:30.430Z,2.23
2018-05-09T22:35:33.693Z,2.37
2018-05-09T22:38:37.839Z,2.50
2018-05-09T22:41:41.085Z,2.67
2018-05-09T22:44:44.338Z,2.53
2018-05-09T22:47:56.975Z,2.87
2018-05-09T22:51:22.928Z,3.23
2018-05-09T22:54:27.406Z,2.60
2018-05-09T22:57:30.681Z,3.03
2018-05-09T23:00:33.936Z,2.97
2018-05-09T23:03:37.206Z,2.90
2018-05-09T23:06:40.455Z,3.30
2018-05-09T23:09:43.781Z,2.70
2018-05-09T23:12:47.811Z,3.58
2018-05-09T23:15:51.060Z,3.47
2018-05-09T23:18:54.317Z,3.20
2018-05-09T23:21:57.599Z,3.37
2018-05-09T23:25:01.619Z,4.00
2018-05-09T23:28:05.663Z,4.00
2018-05-09T23:31:08.951Z,3.70
2018-05-09T23:34:12.209Z,4.37
2018-05-09T23:37:15.463Z,5.10
2018-05-09T23:40:18.716Z,4.53
2018-05-09T23:43:21.974Z,4.47
2018-05-09T23:46:25.234Z,5.83
2018-05-09T23:49:29.244Z,4.93
2018-05-09T23:52:32.529Z,3.57
2018-05-09T23:55:35.833Z,3.00
2018-05-09T23:58:39.173Z,2.87
